Lichtenhain Mittelndorf, Germany

3:04 AM CET on February 09, 2016 (GMT +0100)
Albert-Kunze-Weg | | Change Station
CLOSE
Current Station
Personal Weather Station
Location: Sebnitz, SACHSEN
Elevation: 1014 ft
Nearby Weather Stations

Elev 1014 ft 50.96 °N, 14.28 °E | Updated 17 minutes ago

Partly Cloudy
Partly Cloudy
41.5 °F
Feels Like 42 °F
N
1.2
Wind Variable Wind from SE

Today
High -- | Low -- °F
--% Chance of Precip.
Yesterday
High -- | Low -- °F
Precip. -- in
Pressure 29.62 in
Visibility 6.2 miles
Clouds Few 3400 ft
Windchill 42 °F
Dew Point 33 °F
Humidity 77%
Rainfall Not available.
Snow Depth Not available.
7:27 AM 5:07 PM
New Moon, 0% visible
METAR LKPR 090200Z 23026G36KT 9999 FEW034 05/01 Q1003 NOSIG
Pressure 29.62 in
Visibility 6.2 miles
Clouds Few 3400 ft
Windchill 42 °F
Dew Point 33 °F
Humidity 77%
Rainfall Not available.
Snow Depth Not available.
7:27 AM 5:07 PM
New Moon, 0% visible
METAR LKPR 090200Z 23026G36KT 9999 FEW034 05/01 Q1003 NOSIG

10-Day Weather Forecast

Almanac

Astronomy

Feb. 09, 2016 Rise Set
Actual Time
Civil Twilight
Nautical Twilight
Astronomical Twilight
Moon
Length of Visible Light
Length of Day
Tomorrow will be .
, % of the Moon is Illuminated

Today's Extremes

Country Highs Country Lows

Community

WunderPhotos

Upload Photos

1,891,527 photos uploaded!

WunderBlog® & News

Nearby

Air Quality

  Air Quality AQ Index Pollutant
Not available.

Snow Depth

Station Depth Elevation

Earthquake Activity

City Distance Mag. Time & Date
Minimum magnitude displayed is 2.5.

Coastal Water Temperatures

Place Temperature

Stations

Nearby Weather Stations

Station Location Temp. Windchill Dew Point Humidity Wind Precip. Elev Updated Type